Create Custom Reports and Graphics: Custom Report

Lindcove R.E.C.

Current Conditions

6/28/22 1:45 PM (-07:00)
Updated Every 15 Minutes
Temp 97.7 °F   3.5
Upper Temp 93.7 °F   4.8
Temp Inversion -4.0 °F   1.2
RH 16 %   2
Dew Pt 43.6 °F   0.2
Wind Dir SW | 225 °
Wind Spd 6.0 mph   1.5
Wind Gust 12.7 mph   2.4
BatVolt 13.0 V   0.0

Today & Yesterday

Lindcove R.E.C.

6/28/22 1:45 PM (-07:00)
Updated Every 15 Minutes
Daily Max Temp 98.6 °F   3.5
Time of Max Temp 1337
Daily Min Temp 62.8 °F   0.5
Time of Min Temp 0602
Upper Max Temp 94.7 °F   4.8
Upper Min Temp 68.9 °F   0.3
Daily Max Wind 19.7 mph   5.5
Time of Max Wind 1145
Max Wind Dir SW | 218 °
Daily Rain 0.00 In
Yest MaxT 108.3 °F
Yest MinT 62.3 °F
Yest MaxGst 14.2 mph
Yest Rain 0.00 In
Monthly Rain 0.12 In
Seasonal Rainfall 9.21 In

Daily Meteorological Summary

Last 30 Days

Daily Data | America/Los_Angeles
as of 6/28/22 2:00 PM PDT
Date Daily Max Temp (°F) Time of Max Temp Daily Min Temp (°F) Time of Min Temp Daily Rain (In) Seasonal Rainfall (In) Wind Spd (mph) Daily Max Wind (mph) Time of Max Wind Max Wind Dir (°) Dew Pt (°F) Max RH (%) Min RH (%) Upper Max Temp (°F) Max Upper Temp Time Upper Min Temp (°F) Min Upper Temp Time Max Temp Inversion (°F) Time of Max Temp Inversion Min Temp Inversion (°F) Time of Min Temp Inversion Max 1 Min Rain (In) Max 1 Min Rain Time Max 15 Min Rain (In) Max 15 Min Precip Time Max 60 Min Rain (In) Max 60 Min Rain Time Storm Total (In) MinBV Day (V)
6/27/22 108.3 1621 62.3 0555 0.00 9.21 2.3 14.2 1228 SW | 236 48.7 67 9 104.9 1644 68.6 0543 15.0 0317 -7.3 1417 - - - - - - - 12.5
6/26/22 107.0 1552 63.6 0616 0.00 9.21 2.4 16.0 1036 SW | 231 47.9 66 11 103.5 1741 68.9 0459 16.9 2206 -6.8 1254 - - - - - - - 12.5
6/25/22 107.5 1606 64.4 0601 0.00 9.21 2.6 15.3 1054 SW | 218 49.2 72 9 103.5 1701 68.8 0608 12.2 0146 -6.5 1524 - - - - - - - 12.5
6/24/22 105.0 1542 63.6 0536 0.00 9.21 2.4 14.2 1116 SW | 229 52.8 80 13 102.1 1652 69.8 0608 12.7 0548 -6.5 1505 - - - - - - - 12.5
6/23/22 102.7 1540 64.3 0535 0.00 9.21 2.1 12.5 1447 W | 262 53.8 79 15 100.1 1727 68.9 0609 10.9 2146 -5.9 1409 - - - - - - 0.12 12.5
6/22/22 100.7 1524 68.1 0158 0.12 9.21 5.3 36.8 1305 NE | 35 52.1 77 13 99.1 1730 70.5 0504 14.3 2354 -3.3 1525 0.02 1109 0.08 1121 0.08 1206 0.12 12.5
6/21/22 101.0 1623 55.2 0536 0.00 9.09 2.2 14.0 2220 ESE | 123 46.7 77 12 99.9 1703 60.7 0501 12.8 0331 -5.6 1106 - - - - - - - 12.5
6/20/22 95.9 1619 51.6 0553 0.00 9.09 2.2 12.5 1425 W | 267 42.5 71 13 92.6 1708 58.1 0355 12.8 0051 -7.0 1142 - - - - - - - 12.5
6/19/22 87.7 1603 48.9 0614 0.00 9.09 2.6 14.5 0932 ESE | 120 38.7 74 12 84.0 1752 53.0 0542 11.5 2239 -6.6 1452 - - - - - - - 12.5
6/18/22 82.8 1521 47.4 0531 0.00 9.09 2.9 17.1 1751 WSW | 245 40.3 85 18 78.6 1734 52.2 0500 8.4 2315 -6.9 1237 - - - - - - - 12.5
6/17/22 77.7 1625 53.1 0040 0.00 9.09 2.1 12.3 0324 SW | 228 39.1 70 20 75.8 1732 57.1 0738 10.5 2240 -6.1 1616 - - - - - - - 12.5
6/16/22 96.4 1703 57.3 0517 0.00 9.09 2.9 15.8 1058 SSW | 201 45.7 77 14 93.6 1654 62.1 0604 14.6 0138 -5.9 1448 - - - - - - - 12.4
6/15/22 98.9 1623 54.3 0547 0.00 9.09 2.2 14.9 1146 SW | 229 43.0 85 10 96.0 1627 60.5 0514 12.3 2214 -5.6 1336 - - - - - - - 12.4
6/14/22 90.4 1553 50.2 0554 0.00 9.09 2.4 16.0 0952 S | 187 41.6 77 14 87.9 1626 54.7 0559 11.9 2332 -5.4 1328 - - - - - - - 12.5
6/13/22 88.7 1621 60.3 0037 0.00 9.09 3.1 16.0 1739 NW | 311 46.6 63 16 85.0 1742 62.4 0654 7.2 2211 -7.7 1350 - - - - - - - 12.4
6/12/22 100.7 1525 60.6 0547 0.00 9.09 3.6 18.0 0013 W | 277 53.5 77 15 97.4 1710 65.6 0547 12.1 0107 -7.2 1457 - - - - - - - 12.4
6/11/22 104.6 1606 66.6 0518 0.00 9.09 2.8 15.6 1155 WSW | 246 54.2 72 15 100.9 1648 71.7 0441 13.8 2127 -6.9 1537 - - - - - - - 12.5
6/10/22 104.3 1520 64.4 0545 0.00 9.09 2.4 14.5 1030 SW | 226 56.5 79 18 100.7 1635 69.0 0520 12.3 0401 -6.8 1521 - - - - - - - 12.5
6/9/22 96.5 1516 61.7 0557 0.00 9.09 2.5 15.1 1503 WNW | 283 56.8 85 26 93.3 1708 65.0 0545 10.4 2152 -6.0 1519 - - - - - - - 12.5
6/8/22 95.7 1617 57.5 0556 0.00 9.09 2.3 16.4 1039 SW | 229 49.9 82 17 93.8 1753 61.0 0554 9.2 0311 -5.5 1301 - - - - - - - 12.5
6/7/22 94.6 1559 55.1 0535 0.00 9.09 2.3 14.5 0928 SSW | 197 49.7 77 17 92.6 1719 58.7 0604 11.3 0007 -5.8 1205 - - - - - - - 12.4
6/6/22 94.3 1615 62.2 0606 0.00 9.09 2.7 16.4 1800 WNW | 295 54.5 86 23 90.3 1716 64.4 0523 11.3 2300 -6.4 1539 - - - - - - - 12.5
6/5/22 93.5 1601 56.7 0540 0.00 9.09 2.7 16.9 1735 WNW | 296 50.1 72 23 89.8 1637 60.0 0352 9.3 0542 -6.6 1529 - - - - - - - 12.5
6/4/22 89.4 1614 59.1 0606 0.00 9.09 2.6 13.6 1410 W | 261 48.8 82 20 85.7 1808 60.9 0609 9.3 0029 -6.9 1350 - - - - - - - 12.5
6/3/22 92.8 1552 57.8 0532 0.00 9.09 3.2 16.2 1628 WNW | 292 47.6 71 19 90.3 1648 63.0 0536 8.7 0116 -5.8 1351 - - - - - - - 12.5
6/2/22 95.8 1503 53.8 0553 0.00 9.09 2.2 13.8 1145 SW | 232 44.0 71 12 93.4 1646 59.8 0543 14.9 0442 -5.5 1215 - - - - - - - 12.4
6/1/22 97.5 1605 51.6 0542 0.00 9.09 2.0 13.2 1609 SW | 231 39.6 77 8 93.3 1545 55.8 0535 12.8 0303 -7.5 1449 - - - - - - - 12.4
5/31/22 88.5 1552 46.8 0555 0.00 9.09 2.3 13.4 0931 S | 184 37.1 71 13 84.9 1812 50.8 0615 11.4 2227 -7.1 1227 - - - - - - - 12.4
5/30/22 86.3 1534 45.3 0545 0.00 9.09 2.5 16.2 1611 WNW | 290 37.3 75 15 82.0 1704 50.1 0536 12.2 0440 -7.1 1345 - - - - - - - 12.4
5/29/22 84.0 1610 52.3 0049 0.00 9.09 2.7 16.0 1825 WNW | 290 43.4 81 15 79.8 1720 55.9 0552 9.8 0010 -7.4 1352 - - - - - - - 12.5
Max 108.3 - 68.1 - 0.12 9.21 5.3 36.8 - - 56.8 86 26 104.9 - 71.7 - 16.9 - -3.3 - - - - - - - 0.12 12.5
Avg - - - - - - 2.6 - - - 47.1 - - - - - - - - - - - - - - - - 0.12 -
Min 77.7 - 45.3 - 0.00 9.09 2.0 12.3 - - 37.1 63 8 75.8 - 50.1 - 7.2 - -7.7 - - - - - - - 0.12 12.4

Daily Bio-Meteorological Summary

Last 30 Days

Daily Data | America/Los_Angeles
as of 6/28/22 2:00 PM PDT
Date Daily Max Temp (°F) Daily Min Temp (°F) Daily Rain (In) GDDs (DL) GDDs (Mx/Mn) Seas GDDs (DL) Seas GDDs (Smpl) Chilling <=45F (hrs) Chill Hrs 32-45F (hrs) Utah Chilling (Units) Hrs 70-85F (hrs) Hrs > 95F (hrs) Powdery Mildew Stress (pts) Bee Hrs Today (Hrs) Hrs <= 32F (hrs) Hrs <= 28F (hrs)
6/27/22 108.3 62.3 0.00 35.5 35.3 1,700 1,681 0.0 0.0 -22.0 4.15 9.12 0 13.9 0.0 0.0
6/26/22 107.0 63.6 0.00 34.8 35.3 1,665 1,646 0.0 0.0 -23.0 4.93 8.83 0 13.9 0.0 0.0
6/25/22 107.5 64.4 0.00 36.0 35.9 1,630 1,611 0.0 0.0 -23.5 5.26 8.85 0 13.9 0.0 0.0
6/24/22 105.0 63.6 0.00 34.6 34.3 1,594 1,575 0.0 0.0 -23.0 4.50 8.20 10 13.9 0.0 0.0
6/23/22 102.7 64.3 0.00 33.9 33.5 1,559 1,541 0.0 0.0 -24.0 6.40 7.70 20 14.0 0.0 0.0
6/22/22 100.7 68.1 0.12 31.3 34.4 1,525 1,507 0.0 0.0 -24.0 10.24 3.56 10 11.2 0.0 0.0
6/21/22 101.0 55.2 0.00 30.6 28.1 1,494 1,473 0.0 0.0 -18.0 4.02 5.71 0 14.0 0.0 0.0
6/20/22 95.9 51.6 0.00 25.1 23.8 1,463 1,445 0.0 0.0 -17.5 2.68 0.93 0 13.4 0.0 0.0
6/19/22 87.7 48.9 0.00 18.7 18.3 1,438 1,421 0.0 0.0 -15.0 5.63 0.00 10 13.0 0.0 0.0
6/18/22 82.8 47.4 0.00 15.1 15.1 1,420 1,403 0.0 0.0 0.0 9.59 0.00 20 12.9 0.0 0.0
6/17/22 77.7 53.1 0.00 14.0 15.4 1,405 1,387 0.0 0.0 0.5 4.89 0.00 0 14.0 0.0 0.0
6/16/22 96.4 57.3 0.00 27.5 26.8 1,391 1,372 0.0 0.0 -18.5 4.89 1.34 0 13.9 0.0 0.0
6/15/22 98.9 54.3 0.00 27.3 26.6 1,363 1,345 0.0 0.0 -18.0 3.36 3.39 0 13.7 0.0 0.0
6/14/22 90.4 50.2 0.00 21.5 20.3 1,336 1,319 0.0 0.0 -14.5 4.94 0.00 10 13.2 0.0 0.0
6/13/22 88.7 60.3 0.00 23.6 24.5 1,314 1,298 0.0 0.0 -21.5 6.00 0.00 20 13.9 0.0 0.0
6/12/22 100.7 60.6 0.00 32.6 30.6 1,291 1,274 0.0 0.0 -22.5 4.26 5.94 0 13.9 0.0 0.0
6/11/22 104.6 66.6 0.00 34.5 35.6 1,258 1,243 0.0 0.0 -24.0 7.03 7.90 10 13.9 0.0 0.0
6/10/22 104.3 64.4 0.00 34.9 34.3 1,224 1,207 0.0 0.0 -23.5 5.06 7.65 0 13.9 0.0 0.0
6/9/22 96.5 61.7 0.00 29.8 29.1 1,189 1,173 0.0 0.0 -22.5 4.83 1.89 0 13.9 0.0 0.0
6/8/22 95.7 57.5 0.00 27.3 26.6 1,159 1,144 0.0 0.0 -18.0 4.49 0.24 0 13.9 0.0 0.0
6/7/22 94.6 55.1 0.00 25.8 24.9 1,132 1,117 0.0 0.0 -18.0 3.61 0.00 0 13.9 0.0 0.0
6/6/22 94.3 62.2 0.00 26.0 28.2 1,106 1,093 0.0 0.0 -21.5 3.91 0.00 0 13.9 0.0 0.0
6/5/22 93.5 56.7 0.00 26.0 25.1 1,080 1,064 0.0 0.0 -18.5 4.76 0.00 0 13.9 0.0 0.0
6/4/22 89.4 59.1 0.00 23.5 24.2 1,054 1,039 0.0 0.0 -21.5 5.27 0.00 10 13.9 0.0 0.0
6/3/22 92.8 57.8 0.00 26.1 25.3 1,030 1,015 0.0 0.0 -18.5 5.27 0.00 20 13.8 0.0 0.0
6/2/22 95.8 53.8 0.00 26.0 24.8 1,004 990 0.0 0.0 -18.0 2.49 0.16 30 13.5 0.0 0.0
6/1/22 97.5 51.6 0.00 25.0 24.5 978 965 0.0 0.0 -17.5 2.63 2.18 40 13.2 0.0 0.0
5/31/22 88.5 46.8 0.00 19.0 17.6 953 940 0.0 0.0 0.0 5.20 0.00 50 12.8 0.0 0.0
5/30/22 86.3 45.3 0.00 17.0 15.8 934 923 0.0 0.0 0.0 10.49 0.00 60 12.6 0.0 0.0
5/29/22 84.0 52.3 0.00 16.8 18.2 917 907 0.0 0.0 0.5 9.35 0.00 40 13.5 0.0 0.0
Max 108.3 68.1 0.12 36.0 35.9 - - 0.0 0.0 0.5 10.49 9.12 - 14.0 0.0 0.0
Avg - - - 26.7 26.4 - - 0.0 0.0 -16.8 5.34 2.79 - 13.6 0.0 0.0
Min 77.7 45.3 0.00 14.0 15.1 - - 0.0 0.0 -24.0 2.49 0.00 - 11.2 0.0 0.0
Total - - - 799.6 792.7 - - 0.0 0.0 -505.5 160.11 83.60 - 407.2 0.0 0.0

Climate Summary

Lindcove R.E.C.

Current Year | Showing 1/1/22 - 6/27/22
as of 6/28/22 2:00 PM PDT
Temperature (°F) Max Wind Gust (mph) Precip (in) Days
Month Days Avg High Avg Low Max Min Avg Max Total Daily Min Temp < 28 Daily Min Temp < 32 Daily Max Temp > 90 Daily Max Temp > 100 Daily Rain > 0.01 Daily Rain > 0.1
Jan 2022 31 64.5 34.5 70.4 29.4 7.6 10.7 0 0 11 0 0 0 0
Feb 2022 28 70.3 33.8 87.1 29 9.2 21.9 0.45 0 9 0 0 1 1
Mar 2022 31 75.3 41.7 92.3 34.2 11.5 23.2 1.27 0 0 3 0 3 2
Apr 2022 30 79.7 44.4 97.1 31.7 14.1 21.3 0.29 0 1 3 0 2 2
May 2022 31 87.1 50.2 104.8 39.1 14.4 18 0 0 0 11 2 0 0
Jun 2022 27 96.7 58.2 108.3 47.4 15.8 36.8 0.12 0 0 22 10 1 1
Total 178 - - - - - - 2.13 0 21 39 12 7 6
Average 29.7 78.7 43.6 78.7 43.6 12.1 - 0.36 0 3.5 6.5 2 1.2 1
Maximum 31 96.7 58.2 108.3 - - 36.8 1.27 0 11 22 10 3 2
Minimum 27 64.5 33.8 - 29 - - 0 0 0 0 0 0 0

Climate Summary

Lindcove R.E.C.

Last Year | Showing 1/1/21 - 12/31/21
as of 6/28/22 2:00 PM PDT
Temperature (°F) Max Wind Gust (mph) Precip (in) Days
Month Days Avg High Avg Low Max Min Avg Max Total Daily Min Temp < 28 Daily Min Temp < 32 Daily Max Temp > 90 Daily Max Temp > 100 Daily Rain > 0.01 Daily Rain > 0.1
Jan 2021 31 64.3 35.6 76.4 30 10.3 18.2 1.77 0 2 0 0 7 4
Feb 2021 28 68.4 37.3 79.3 32.3 10.6 20.2 0.74 0 0 0 0 2 2
Mar 2021 31 71.1 39.2 86.7 32.8 12.8 24.3 1.23 0 0 0 0 4 4
Apr 2021 30 82.7 45.4 97.1 40.6 13.1 19.3 0.1 0 0 5 0 1 0
May 2021 31 90.1 52.2 104.9 42.4 15 21.3 0 0 0 18 1 0 0
Jun 2021 30 99.2 62.3 114.7 46.9 14.1 26.3 0 0 0 25 14 0 0
Jul 2021 31 104.7 68 113.5 62.3 13.5 16.7 0.01 0 0 31 29 0 0
Aug 2021 31 100.8 63.2 107.9 57.7 12.4 18 0 0 0 28 21 0 0
Sep 2021 30 94.2 57.6 109.1 48.3 11.3 17.3 0 0 0 20 6 0 0
Oct 2021 31 78.5 46.2 90.4 35.4 10.8 20.4 2.09 0 0 2 0 3 2
Nov 2021 30 70.9 43.9 78 33.6 8 14.5 0.13 0 0 0 0 2 1
Dec 2021 31 58.2 38 81 29.9 9.4 25.2 4.85 0 3 0 0 11 10
Total 365 - - - - - - 10.92 0 5 129 71 30 23
Average 30.4 82 49.1 82 49.1 11.8 - 0.91 0 0.4 10.8 5.9 2.5 1.9
Maximum 31 104.7 68 114.7 - - 26.3 4.85 0 3 31 29 11 10
Minimum 28 58.2 35.6 - 29.9 - - 0 0 0 0 0 0 0
Calm: 0.0%
Calm: 0.0%